createdAt,value
2016-08-27T00:00:37.863Z,0
2016-08-27T00:01:38.537Z,0
2016-08-27T00:02:37.811Z,0
2016-08-27T00:03:37.775Z,0
2016-08-27T00:04:37.750Z,0
2016-08-27T00:05:38.406Z,0
2016-08-27T00:06:37.688Z,0
2016-08-27T00:07:38.347Z,0
2016-08-27T00:08:36.930Z,0
2016-08-27T00:09:38.294Z,0
2016-08-27T00:10:37.572Z,0
2016-08-27T00:11:37.542Z,0
2016-08-27T00:12:37.499Z,0
2016-08-27T00:13:38.193Z,0
2016-08-27T00:14:37.448Z,0
2016-08-27T00:15:38.105Z,0
2016-08-27T00:16:37.386Z,0
2016-08-27T00:17:38.052Z,0
2016-08-27T00:18:37.325Z,0
2016-08-27T00:19:37.995Z,0
2016-08-27T00:20:36.559Z,0
2016-08-27T00:21:37.929Z,0
2016-08-27T00:22:37.901Z,0
2016-08-27T00:23:37.871Z,0
2016-08-27T00:24:37.846Z,0
2016-08-27T00:25:36.419Z,0
2016-08-27T00:26:37.085Z,0
2016-08-27T00:27:37.749Z,0
2016-08-27T00:28:37.028Z,0
2016-08-27T00:29:37.698Z,0
2016-08-27T00:30:37.670Z,0
2016-08-27T00:31:37.649Z,0
2016-08-27T00:32:36.901Z,0
2016-08-27T00:33:36.873Z,0
2016-08-27T00:34:37.544Z,0
2016-08-27T00:35:37.507Z,0
2016-08-27T00:36:36.087Z,0
2016-08-27T00:37:36.755Z,0
2016-08-27T00:38:36.727Z,0
2016-08-27T00:39:36.694Z,0
2016-08-27T00:40:36.664Z,0
2016-08-27T00:41:35.929Z,0
2016-08-27T00:42:36.608Z,0
2016-08-27T00:43:36.586Z,0
2016-08-27T00:44:37.249Z,0
2016-08-27T00:45:35.811Z,0
2016-08-27T00:46:37.176Z,0
2016-08-27T00:47:36.450Z,0
2016-08-27T00:48:35.723Z,0
2016-08-27T00:49:36.384Z,0
2016-08-27T00:50:37.068Z,0
2016-08-27T00:51:36.326Z,0
2016-08-27T00:52:35.609Z,0
2016-08-27T00:53:35.573Z,0
2016-08-27T00:54:36.938Z,0
2016-08-27T00:55:35.508Z,0
2016-08-27T00:56:35.490Z,0
2016-08-27T00:57:36.145Z,0
2016-08-27T00:58:36.117Z,0
2016-08-27T00:59:36.790Z,0
2016-08-27T01:00:35.357Z,0
2016-08-27T01:01:36.726Z,0
2016-08-27T01:02:35.994Z,0
2016-08-27T01:03:35.963Z,0
2016-08-27T01:04:35.932Z,0
2016-08-27T01:05:36.606Z,0
2016-08-27T01:06:36.578Z,0
2016-08-27T01:07:36.537Z,0
2016-08-27T01:08:35.116Z,0
2016-08-27T01:09:36.475Z,0
2016-08-27T01:10:35.754Z,0
2016-08-27T01:11:36.427Z,0
2016-08-27T01:12:36.384Z,0
2016-08-27T01:13:36.356Z,0
2016-08-27T01:14:35.635Z,0
2016-08-27T01:15:34.905Z,0
2016-08-27T01:16:35.568Z,0
2016-08-27T01:17:35.556Z,0
2016-08-27T01:18:35.511Z,0
2016-08-27T01:19:34.784Z,0
2016-08-27T01:20:34.748Z,0
2016-08-27T01:21:35.416Z,0
2016-08-27T01:22:35.391Z,0
2016-08-27T01:23:35.360Z,0
2016-08-27T01:24:34.632Z,0
2016-08-27T01:25:35.323Z,0
2016-08-27T01:26:35.962Z,0
2016-08-27T01:27:35.233Z,0
2016-08-27T01:28:34.509Z,0
2016-08-27T01:29:35.859Z,0
2016-08-27T01:30:33.751Z,0
2016-08-27T01:31:34.417Z,0
2016-08-27T01:32:35.086Z,0
2016-08-27T01:33:35.051Z,0
2016-08-27T01:34:35.717Z,0
2016-08-27T01:35:34.991Z,0
2016-08-27T01:36:35.667Z,0
2016-08-27T01:37:34.922Z,0
2016-08-27T01:38:35.591Z,0
2016-08-27T01:39:35.555Z,0
2016-08-27T01:40:34.837Z,0
2016-08-27T01:41:34.824Z,0
2016-08-27T01:42:34.769Z,0
2016-08-27T01:43:34.752Z,0
2016-08-27T01:44:35.411Z,0
2016-08-27T01:45:33.284Z,0
2016-08-27T01:46:34.668Z,0
2016-08-27T01:47:34.625Z,0
2016-08-27T01:48:34.594Z,0
2016-08-27T01:49:35.257Z,0
2016-08-27T01:50:33.822Z,0
2016-08-27T01:51:35.194Z,0
2016-08-27T01:52:35.162Z,0
2016-08-27T01:53:34.432Z,0
2016-08-27T01:54:34.406Z,0
2016-08-27T01:55:35.076Z,0
2016-08-27T01:56:34.342Z,0
2016-08-27T01:57:33.623Z,0
2016-08-27T01:58:34.973Z,0
2016-08-27T01:59:34.269Z,0
2016-08-27T02:00:34.221Z,0
2016-08-27T02:01:34.191Z,0
2016-08-27T02:02:32.763Z,0
2016-08-27T02:03:34.132Z,0
2016-08-27T02:04:33.399Z,0
2016-08-27T02:05:34.063Z,0
2016-08-27T02:06:34.724Z,0
2016-08-27T02:07:34.707Z,0
2016-08-27T02:08:34.672Z,0
2016-08-27T02:09:34.649Z,0
2016-08-27T02:10:33.915Z,0
2016-08-27T02:11:33.876Z,0
2016-08-27T02:12:34.570Z,0
2016-08-27T02:13:33.814Z,0
2016-08-27T02:14:34.488Z,0
2016-08-27T02:15:33.755Z,0
2016-08-27T02:16:33.029Z,0
2016-08-27T02:17:32.997Z,0
2016-08-27T02:18:34.359Z,0
2016-08-27T02:19:32.236Z,0
2016-08-27T02:20:33.607Z,0
2016-08-27T02:21:34.268Z,0
2016-08-27T02:22:34.237Z,0
2016-08-27T02:23:34.202Z,0
2016-08-27T02:24:34.169Z,0
2016-08-27T02:25:34.145Z,0
2016-08-27T02:26:32.725Z,0
2016-08-27T02:27:33.391Z,0
2016-08-27T02:28:34.055Z,0
2016-08-27T02:29:32.620Z,0
2016-08-27T02:30:33.300Z,0
2016-08-27T02:31:32.569Z,0
2016-08-27T02:32:33.926Z,0
2016-08-27T02:33:33.912Z,0
2016-08-27T02:34:33.867Z,0
2016-08-27T02:35:32.442Z,0
2016-08-27T02:36:33.804Z,0
2016-08-27T02:37:33.766Z,0
2016-08-27T02:38:33.045Z,0
2016-08-27T02:39:33.011Z,0
2016-08-27T02:40:32.293Z,0
2016-08-27T02:41:33.668Z,0
2016-08-27T02:42:33.617Z,0
2016-08-27T02:43:33.588Z,0
2016-08-27T02:44:32.848Z,0
2016-08-27T02:45:32.823Z,0
2016-08-27T02:46:33.493Z,0
2016-08-27T02:47:33.464Z,0
2016-08-27T02:48:33.431Z,0
2016-08-27T02:49:33.412Z,0
2016-08-27T02:50:32.664Z,0
2016-08-27T02:51:33.336Z,0
2016-08-27T02:52:32.618Z,0
2016-08-27T02:53:32.589Z,0
2016-08-27T02:54:32.555Z,0
2016-08-27T02:55:33.220Z,0
2016-08-27T02:56:33.194Z,0
2016-08-27T02:57:33.153Z,0
2016-08-27T02:58:33.118Z,0
2016-08-27T02:59:33.088Z,0
2016-08-27T03:00:33.064Z,0
2016-08-27T03:01:32.336Z,0
2016-08-27T03:02:33.003Z,0
2016-08-27T03:03:31.566Z,0
2016-08-27T03:04:32.946Z,0
2016-08-27T03:05:32.899Z,0
2016-08-27T03:06:32.178Z,0
2016-08-27T03:07:32.843Z,0
2016-08-27T03:08:32.133Z,0
2016-08-27T03:09:32.795Z,0
2016-08-27T03:10:32.745Z,0
2016-08-27T03:11:32.017Z,0
2016-08-27T03:12:31.994Z,0
2016-08-27T03:13:31.956Z,0
2016-08-27T03:14:32.627Z,0
2016-08-27T03:15:31.199Z,0
2016-08-27T03:16:32.558Z,0
2016-08-27T03:17:32.536Z,0
2016-08-27T03:18:31.815Z,0
2016-08-27T03:19:31.781Z,0
2016-08-27T03:20:31.046Z,0
2016-08-27T03:21:31.705Z,0
2016-08-27T03:22:31.685Z,0
2016-08-27T03:23:31.655Z,0
2016-08-27T03:24:32.315Z,0
2016-08-27T03:25:32.287Z,0
2016-08-27T03:26:31.556Z,0
2016-08-27T03:27:30.827Z,0
2016-08-27T03:28:30.800Z,0
2016-08-27T03:29:32.153Z,0
2016-08-27T03:30:30.733Z,0
2016-08-27T03:31:30.008Z,0
2016-08-27T03:32:32.081Z,0
2016-08-27T03:33:31.332Z,0
2016-08-27T03:34:31.325Z,0
2016-08-27T03:35:31.293Z,0
2016-08-27T03:36:31.242Z,0
2016-08-27T03:37:31.911Z,0
2016-08-27T03:38:31.182Z,0
2016-08-27T03:39:31.842Z,0
2016-08-27T03:40:31.110Z,0
2016-08-27T03:41:31.091Z,0
2016-08-27T03:42:31.757Z,0
2016-08-27T03:43:31.721Z,0
2016-08-27T03:44:30.994Z,0
2016-08-27T03:45:30.268Z,0
2016-08-27T03:46:30.930Z,0
2016-08-27T03:47:31.589Z,0
2016-08-27T03:48:30.869Z,0
2016-08-27T03:49:31.533Z,0
2016-08-27T03:50:30.805Z,0
2016-08-27T03:51:30.770Z,0
2016-08-27T03:52:30.749Z,0
2016-08-27T03:53:30.709Z,0
2016-08-27T03:54:31.375Z,0
2016-08-27T03:55:30.649Z,0
2016-08-27T03:56:30.628Z,0
2016-08-27T03:57:31.287Z,0
2016-08-27T03:58:29.867Z,0
2016-08-27T03:59:29.829Z,0
2016-08-27T04:00:30.486Z,0
2016-08-27T04:01:31.163Z,0
2016-08-27T04:02:31.122Z,0
2016-08-27T04:03:31.088Z,0
2016-08-27T04:04:30.365Z,0
2016-08-27T04:05:31.034Z,0
2016-08-27T04:06:30.301Z,0
2016-08-27T04:07:30.274Z,0
2016-08-27T04:08:30.944Z,0
2016-08-27T04:09:29.514Z,0
2016-08-27T04:10:30.882Z,0
2016-08-27T04:11:29.458Z,0
2016-08-27T04:12:30.805Z,0
2016-08-27T04:13:30.101Z,0
2016-08-27T04:14:30.058Z,0
2016-08-27T04:15:30.017Z,0
2016-08-27T04:16:30.693Z,0
2016-08-27T04:17:29.962Z,0
2016-08-27T04:18:29.233Z,0
2016-08-27T04:19:30.591Z,0
2016-08-27T04:20:29.170Z,0
2016-08-27T04:21:29.141Z,0
2016-08-27T04:22:30.511Z,0
2016-08-27T04:23:30.486Z,0
2016-08-27T04:24:30.441Z,0
2016-08-27T04:25:29.724Z,0
2016-08-27T04:26:29.679Z,5
2016-08-27T04:27:29.645Z,5
2016-08-27T04:28:29.630Z,5
2016-08-27T04:29:29.590Z,5
2016-08-27T04:30:30.263Z,5
2016-08-27T04:31:28.827Z,5
2016-08-27T04:32:30.184Z,5
2016-08-27T04:33:30.158Z,10
2016-08-27T04:34:29.433Z,10
2016-08-27T04:35:29.400Z,10
2016-08-27T04:36:27.984Z,10
2016-08-27T04:37:29.327Z,10
2016-08-27T04:38:29.302Z,15
2016-08-27T04:39:29.276Z,15
2016-08-27T04:40:29.932Z,15
2016-08-27T04:41:29.914Z,15
2016-08-27T04:42:29.893Z,20
2016-08-27T04:43:29.852Z,20
2016-08-27T04:44:29.114Z,20
2016-08-27T04:45:29.784Z,20
2016-08-27T04:46:29.051Z,25
2016-08-27T04:47:29.020Z,25
2016-08-27T04:48:29.685Z,25
2016-08-27T04:49:28.271Z,30
2016-08-27T04:50:29.632Z,30
2016-08-27T04:51:29.585Z,35
2016-08-27T04:52:29.559Z,35
2016-08-27T04:53:28.136Z,40
2016-08-27T04:54:29.507Z,45
2016-08-27T04:55:29.469Z,45
2016-08-27T04:56:28.744Z,50
2016-08-27T04:57:29.405Z,55
2016-08-27T04:58:28.671Z,45
2016-08-27T04:59:27.951Z,50
2016-08-27T05:00:28.616Z,50
2016-08-27T05:01:28.584Z,50
2016-08-27T05:02:29.245Z,55
2016-08-27T05:03:29.214Z,55
2016-08-27T05:04:28.493Z,60
2016-08-27T05:05:28.450Z,65
2016-08-27T05:06:28.424Z,80
2016-08-27T05:07:28.395Z,105
2016-08-27T05:08:28.361Z,135
2016-08-27T05:09:29.034Z,120
2016-08-27T05:10:28.990Z,115
2016-08-27T05:11:28.959Z,105
2016-08-27T05:12:28.931Z,135
2016-08-27T05:13:28.211Z,205
2016-08-27T05:14:28.891Z,260
2016-08-27T05:15:28.847Z,275
2016-08-27T05:16:28.128Z,285
2016-08-27T05:17:28.776Z,295
2016-08-27T05:18:28.750Z,305
2016-08-27T05:19:28.026Z,310
2016-08-27T05:20:27.995Z,325
2016-08-27T05:21:28.663Z,330
2016-08-27T05:22:28.622Z,340
2016-08-27T05:23:27.903Z,345
2016-08-27T05:24:28.567Z,355
2016-08-27T05:25:27.844Z,365
2016-08-27T05:26:27.117Z,385
2016-08-27T05:27:28.492Z,405
2016-08-27T05:28:28.453Z,425
2016-08-27T05:29:28.425Z,435
2016-08-27T05:30:27.012Z,440
2016-08-27T05:31:27.667Z,455
2016-08-27T05:32:28.335Z,460
2016-08-27T05:33:28.321Z,465
2016-08-27T05:34:26.900Z,470
2016-08-27T05:35:26.865Z,475
2016-08-27T05:36:27.532Z,485
2016-08-27T05:37:26.813Z,510
2016-08-27T05:38:27.477Z,515
2016-08-27T05:39:28.145Z,525
2016-08-27T05:40:28.123Z,540
2016-08-27T05:41:26.705Z,555
2016-08-27T05:42:28.078Z,565
2016-08-27T05:43:27.356Z,585
2016-08-27T05:44:27.318Z,600
2016-08-27T05:45:27.987Z,610
2016-08-27T05:46:27.964Z,625
2016-08-27T05:47:27.938Z,630
2016-08-27T05:48:26.532Z,630
2016-08-27T05:49:27.888Z,630
2016-08-27T05:50:27.864Z,645
2016-08-27T05:51:27.140Z,655
2016-08-27T05:52:27.109Z,660
2016-08-27T05:53:27.104Z,665
2016-08-27T05:54:26.369Z,680
2016-08-27T05:55:27.044Z,690
2016-08-27T05:56:27.730Z,705
2016-08-27T05:57:27.703Z,720
2016-08-27T05:58:27.675Z,730
2016-08-27T05:59:26.949Z,745
2016-08-27T06:00:26.923Z,755
2016-08-27T06:01:27.599Z,770
2016-08-27T06:02:26.199Z,775
2016-08-27T06:03:26.848Z,775
2016-08-27T06:04:26.132Z,780
2016-08-27T06:05:27.507Z,790
2016-08-27T06:06:26.780Z,805
2016-08-27T06:07:26.781Z,810
2016-08-27T06:08:26.753Z,830
2016-08-27T06:09:27.420Z,835
2016-08-27T06:10:27.399Z,850
2016-08-27T06:11:25.975Z,855
2016-08-27T06:12:27.342Z,870
2016-08-27T06:13:27.321Z,875
2016-08-27T06:14:27.305Z,870
2016-08-27T06:15:25.891Z,880
2016-08-27T06:16:27.257Z,880
2016-08-27T06:17:26.545Z,880
2016-08-27T06:18:25.823Z,885
2016-08-27T06:19:27.191Z,885
2016-08-27T06:20:27.169Z,885
2016-08-27T06:21:26.457Z,890
2016-08-27T06:22:26.432Z,885
2016-08-27T06:23:26.410Z,890
2016-08-27T06:24:25.696Z,885
2016-08-27T06:25:26.371Z,885
2016-08-27T06:26:26.346Z,895
2016-08-27T06:27:27.032Z,885
2016-08-27T06:28:26.313Z,880
2016-08-27T06:29:25.594Z,875
2016-08-27T06:30:24.898Z,875
2016-08-27T06:31:26.256Z,880
2016-08-27T06:32:26.925Z,890
2016-08-27T06:33:26.904Z,885
2016-08-27T06:34:25.495Z,870
2016-08-27T06:35:26.859Z,880
2016-08-27T06:36:26.152Z,915
2016-08-27T06:37:26.824Z,960
2016-08-27T06:38:26.121Z,985
2016-08-27T06:39:26.782Z,1010
2016-08-27T06:40:26.070Z,1020
2016-08-27T06:41:26.745Z,1030
2016-08-27T06:42:24.651Z,1045
2016-08-27T06:43:25.310Z,1065
2016-08-27T06:44:26.701Z,1095
2016-08-27T06:45:25.974Z,1105
2016-08-27T06:46:26.654Z,1125
2016-08-27T06:47:26.644Z,1135
2016-08-27T06:48:25.923Z,1150
2016-08-27T06:49:26.588Z,1160
2016-08-27T06:50:25.873Z,1165
2016-08-27T06:51:24.463Z,1175
2016-08-27T06:52:25.839Z,1185
2016-08-27T06:53:25.819Z,1195
2016-08-27T06:54:25.836Z,1200
2016-08-27T06:55:26.493Z,1210
2016-08-27T06:56:26.464Z,1225
2016-08-27T06:57:25.069Z,1245
2016-08-27T06:58:25.735Z,1255
2016-08-27T06:59:25.715Z,1275
2016-08-27T07:00:26.393Z,1290
2016-08-27T07:01:26.374Z,1305
2016-08-27T07:02:24.960Z,1315
2016-08-27T07:03:26.354Z,1315
2016-08-27T07:04:25.619Z,1300
2016-08-27T07:05:25.597Z,1305
2016-08-27T07:06:25.591Z,1340
2016-08-27T07:07:24.883Z,1365
2016-08-27T07:08:25.573Z,1395
2016-08-27T07:09:25.551Z,1415
2016-08-27T07:10:25.525Z,1425
2016-08-27T07:11:25.498Z,1425
2016-08-27T07:12:26.193Z,1430
2016-08-27T07:13:26.173Z,1445
2016-08-27T07:14:25.459Z,1450
2016-08-27T07:15:26.122Z,1445
2016-08-27T07:16:26.117Z,1445
2016-08-27T07:17:26.105Z,1430
2016-08-27T07:18:25.406Z,1410
2016-08-27T07:19:25.371Z,1320
2016-08-27T07:20:24.660Z,1180
2016-08-27T07:21:24.643Z,1110
2016-08-27T07:22:25.321Z,1085
2016-08-27T07:23:26.004Z,1090
2016-08-27T07:24:25.287Z,1090
2016-08-27T07:25:25.983Z,1085
2016-08-27T07:26:25.260Z,1090
2016-08-27T07:27:25.941Z,1095
2016-08-27T07:28:25.233Z,1100
2016-08-27T07:29:24.531Z,1095
2016-08-27T07:30:25.213Z,1095
2016-08-27T07:31:25.873Z,1115
2016-08-27T07:32:25.162Z,1120
2016-08-27T07:33:25.845Z,1130
2016-08-27T07:34:25.133Z,1135
2016-08-27T07:35:25.812Z,1140
2016-08-27T07:36:25.804Z,1235
2016-08-27T07:37:25.081Z,1400
2016-08-27T07:38:24.370Z,1550
2016-08-27T07:39:25.752Z,1570
2016-08-27T07:40:25.043Z,1595
2016-08-27T07:41:25.719Z,1645
2016-08-27T07:42:25.005Z,1650
2016-08-27T07:43:24.987Z,1660
2016-08-27T07:44:25.671Z,1660
2016-08-27T07:45:24.951Z,1680
2016-08-27T07:46:24.239Z,1730
2016-08-27T07:47:24.921Z,1775
2016-08-27T07:48:24.903Z,1810
2016-08-27T07:49:24.200Z,1830
2016-08-27T07:50:24.870Z,1850
2016-08-27T07:51:24.856Z,1830
2016-08-27T07:52:24.843Z,1840
2016-08-27T07:53:24.826Z,1890
2016-08-27T07:54:24.812Z,1885
2016-08-27T07:55:24.093Z,1825
2016-08-27T07:56:24.781Z,1820
2016-08-27T07:57:24.758Z,1850
2016-08-27T07:58:24.040Z,1930
2016-08-27T07:59:22.632Z,1990
2016-08-27T08:00:24.707Z,1980
2016-08-27T08:01:24.697Z,1970
2016-08-27T08:02:24.686Z,2015
2016-08-27T08:03:25.345Z,2040
2016-08-27T08:04:25.334Z,2010
2016-08-27T08:05:24.626Z,1940
2016-08-27T08:06:24.605Z,1985
2016-08-27T08:07:24.583Z,2040
2016-08-27T08:08:24.559Z,2080
2016-08-27T08:09:24.564Z,2085
2016-08-27T08:10:25.220Z,2105
2016-08-27T08:11:25.215Z,2120
2016-08-27T08:12:24.496Z,2110
2016-08-27T08:13:24.482Z,2185
2016-08-27T08:14:25.177Z,2180
2016-08-27T08:15:24.439Z,2135
2016-08-27T08:16:25.125Z,2145
2016-08-27T08:17:24.410Z,2115
2016-08-27T08:18:23.018Z,2085
2016-08-27T08:19:24.378Z,2125
2016-08-27T08:20:24.374Z,2180
2016-08-27T08:21:24.337Z,2145
2016-08-27T08:22:23.633Z,2170
2016-08-27T08:23:24.312Z,2210
2016-08-27T08:24:24.292Z,2200
2016-08-27T08:25:24.970Z,2190
2016-08-27T08:26:24.257Z,2190
2016-08-27T08:27:23.542Z,2195
2016-08-27T08:28:24.227Z,2235
2016-08-27T08:29:24.907Z,2165
2016-08-27T08:30:23.498Z,2080
2016-08-27T08:31:24.176Z,2225
2016-08-27T08:32:24.860Z,2215
2016-08-27T08:33:24.141Z,2245
2016-08-27T08:34:24.133Z,2230
2016-08-27T08:35:24.112Z,2230
2016-08-27T08:36:24.091Z,2265
2016-08-27T08:37:24.087Z,2315
2016-08-27T08:38:24.069Z,2265
2016-08-27T08:39:24.742Z,2220
2016-08-27T08:40:24.022Z,2160
2016-08-27T08:41:24.036Z,2205
2016-08-27T08:42:23.991Z,2235
2016-08-27T08:43:23.979Z,2230
2016-08-27T08:44:23.975Z,2270
2016-08-27T08:45:23.272Z,2285
2016-08-27T08:46:23.242Z,2290
2016-08-27T08:47:23.916Z,2230
2016-08-27T08:48:23.231Z,2270
2016-08-27T08:49:24.598Z,2335
2016-08-27T08:50:24.582Z,2295
2016-08-27T08:51:23.857Z,2320
2016-08-27T08:52:23.151Z,2355
2016-08-27T08:53:24.535Z,2360
2016-08-27T08:54:24.515Z,2365
2016-08-27T08:55:23.803Z,2315
2016-08-27T08:56:23.085Z,2400
2016-08-27T08:57:23.775Z,2465
2016-08-27T08:58:23.060Z,2360
2016-08-27T08:59:24.452Z,2310
2016-08-27T09:00:23.733Z,2365
2016-08-27T09:01:24.419Z,2380
2016-08-27T09:02:24.407Z,2425
2016-08-27T09:03:24.386Z,2390
2016-08-27T09:04:24.373Z,2430
2016-08-27T09:05:24.362Z,2350
2016-08-27T09:06:23.651Z,2390
2016-08-27T09:07:24.331Z,2430
2016-08-27T09:08:24.321Z,2410
2016-08-27T09:09:24.305Z,2460
2016-08-27T09:10:24.291Z,2435
2016-08-27T09:11:24.284Z,2400
2016-08-27T09:12:22.867Z,2455
2016-08-27T09:13:22.869Z,2480
2016-08-27T09:14:22.845Z,2475
2016-08-27T09:15:24.224Z,2415
2016-08-27T09:16:24.214Z,2430
2016-08-27T09:17:24.203Z,2550
2016-08-27T09:18:23.497Z,2475
2016-08-27T09:19:23.477Z,2385
2016-08-27T09:20:24.162Z,2355
2016-08-27T09:21:23.445Z,2515
2016-08-27T09:22:23.443Z,2490
2016-08-27T09:23:23.419Z,2480
2016-08-27T09:24:23.413Z,2400
2016-08-27T09:25:24.093Z,2315
2016-08-27T09:26:24.083Z,2490
2016-08-27T09:27:23.369Z,2525
2016-08-27T09:28:23.361Z,2530
2016-08-27T09:29:21.960Z,2650
2016-08-27T09:30:24.025Z,2680
2016-08-27T09:31:23.330Z,2765
2016-08-27T09:32:23.306Z,2740
2016-08-27T09:33:24.001Z,2700
2016-08-27T09:34:22.583Z,2750
2016-08-27T09:35:23.269Z,2745
2016-08-27T09:36:23.259Z,2750
2016-08-27T09:37:23.245Z,2695
2016-08-27T09:38:23.235Z,2695
2016-08-27T09:39:23.918Z,2755
2016-08-27T09:40:22.517Z,2715
2016-08-27T09:41:23.899Z,2730
2016-08-27T09:42:23.186Z,2730
2016-08-27T09:43:23.173Z,2745
2016-08-27T09:44:23.158Z,2740
2016-08-27T09:45:23.843Z,2775
2016-08-27T09:46:22.439Z,2745
2016-08-27T09:47:23.125Z,2600
2016-08-27T09:48:23.803Z,2660
2016-08-27T09:49:23.803Z,2755
2016-08-27T09:50:23.794Z,2735
2016-08-27T09:51:23.094Z,2730
2016-08-27T09:52:23.072Z,2755
2016-08-27T09:53:23.743Z,2870
2016-08-27T09:54:23.048Z,2905
2016-08-27T09:55:23.726Z,2780
2016-08-27T09:56:23.013Z,2765
2016-08-27T09:57:23.005Z,2760
2016-08-27T09:58:22.300Z,2930
2016-08-27T09:59:22.989Z,2940
2016-08-27T10:00:22.284Z,2220
2016-08-27T10:01:22.978Z,1475
2016-08-27T10:02:22.246Z,1455
2016-08-27T10:03:22.951Z,1445
2016-08-27T10:04:23.631Z,1440
2016-08-27T10:05:23.603Z,1435
2016-08-27T10:06:23.599Z,1420
2016-08-27T10:07:22.199Z,1425
2016-08-27T10:08:23.592Z,1435
2016-08-27T10:09:22.863Z,1440
2016-08-27T10:10:22.868Z,1420
2016-08-27T10:11:22.850Z,1400
2016-08-27T10:12:23.526Z,1445
2016-08-27T10:13:22.830Z,1450
2016-08-27T10:14:22.106Z,1295
2016-08-27T10:15:23.494Z,1225
2016-08-27T10:16:22.102Z,1275
2016-08-27T10:17:22.774Z,1250
2016-08-27T10:18:23.463Z,1235
2016-08-27T10:19:22.055Z,1230
2016-08-27T10:20:23.442Z,1210
2016-08-27T10:21:23.421Z,1120
2016-08-27T10:22:22.710Z,1295
2016-08-27T10:23:22.005Z,2255
2016-08-27T10:24:23.410Z,2865
2016-08-27T10:25:23.381Z,2830
2016-08-27T10:26:21.281Z,2870
2016-08-27T10:27:23.368Z,2950
2016-08-27T10:28:22.650Z,2895
2016-08-27T10:29:23.324Z,2900
2016-08-27T10:30:21.924Z,3065
2016-08-27T10:31:23.313Z,3050
2016-08-27T10:32:23.307Z,3120
2016-08-27T10:33:22.600Z,3145
2016-08-27T10:34:21.187Z,2985
2016-08-27T10:35:22.580Z,2920
2016-08-27T10:36:23.243Z,2925
2016-08-27T10:37:21.843Z,2965
2016-08-27T10:38:21.838Z,2790
2016-08-27T10:39:22.510Z,2715
2016-08-27T10:40:23.196Z,2790
2016-08-27T10:41:22.486Z,2810
2016-08-27T10:42:23.177Z,2845
2016-08-27T10:43:22.488Z,2995
2016-08-27T10:44:23.151Z,2865
2016-08-27T10:45:22.446Z,2665
2016-08-27T10:46:23.132Z,2830
2016-08-27T10:47:23.116Z,2795
2016-08-27T10:48:22.400Z,2685
2016-08-27T10:49:23.094Z,2720
2016-08-27T10:50:22.381Z,3005
2016-08-27T10:51:23.077Z,3130
2016-08-27T10:52:22.350Z,2955
2016-08-27T10:53:23.043Z,2715
2016-08-27T10:54:23.024Z,2575
2016-08-27T10:55:23.008Z,1740
2016-08-27T10:56:21.624Z,1065
2016-08-27T10:57:21.596Z,1080
2016-08-27T10:58:22.978Z,1005
2016-08-27T10:59:22.264Z,980
2016-08-27T11:00:22.270Z,985
2016-08-27T11:01:22.231Z,925
2016-08-27T11:02:22.935Z,745
2016-08-27T11:03:22.912Z,915
2016-08-27T11:04:22.888Z,1215
2016-08-27T11:05:22.889Z,890
2016-08-27T11:06:22.875Z,570
2016-08-27T11:07:22.856Z,560
2016-08-27T11:08:21.445Z,565
2016-08-27T11:09:22.139Z,585
2016-08-27T11:10:22.120Z,720
2016-08-27T11:11:22.805Z,1685
2016-08-27T11:12:22.807Z,2220
2016-08-27T11:13:22.778Z,2490
2016-08-27T11:14:22.062Z,2595
2016-08-27T11:15:21.354Z,2530
2016-08-27T11:16:22.037Z,2560
2016-08-27T11:17:22.031Z,2435
2016-08-27T11:18:22.722Z,2485
2016-08-27T11:19:22.695Z,2140
2016-08-27T11:20:22.702Z,835
2016-08-27T11:21:21.264Z,395
2016-08-27T11:22:22.650Z,365
2016-08-27T11:23:21.943Z,350
2016-08-27T11:24:21.919Z,335
2016-08-27T11:25:22.598Z,325
2016-08-27T11:26:22.582Z,315
2016-08-27T11:27:22.572Z,305
2016-08-27T11:28:21.165Z,300
2016-08-27T11:29:22.528Z,290
2016-08-27T11:30:22.519Z,285
2016-08-27T11:31:21.807Z,280
2016-08-27T11:32:21.775Z,275
2016-08-27T11:33:21.062Z,270
2016-08-27T11:34:21.738Z,260
2016-08-27T11:35:21.031Z,250
2016-08-27T11:36:21.702Z,235
2016-08-27T11:37:22.374Z,225
2016-08-27T11:38:22.365Z,215
2016-08-27T11:39:21.647Z,205
2016-08-27T11:40:20.961Z,200
2016-08-27T11:41:21.608Z,200
2016-08-27T11:42:22.284Z,195
2016-08-27T11:43:21.564Z,195
2016-08-27T11:44:20.846Z,195
2016-08-27T11:45:22.218Z,195
2016-08-27T11:46:21.501Z,195
2016-08-27T11:47:22.183Z,195
2016-08-27T11:48:22.154Z,190
2016-08-27T11:49:21.442Z,190
2016-08-27T11:50:21.411Z,190
2016-08-27T11:51:21.412Z,190
2016-08-27T11:52:20.676Z,190
2016-08-27T11:53:22.057Z,190
2016-08-27T11:54:21.332Z,190
2016-08-27T11:55:21.305Z,190
2016-08-27T11:56:21.316Z,190
2016-08-27T11:57:21.966Z,190
2016-08-27T11:58:21.249Z,190
2016-08-27T11:59:19.843Z,190
2016-08-27T12:00:21.895Z,185
2016-08-27T12:01:21.169Z,185
2016-08-27T12:02:20.454Z,185
2016-08-27T12:03:21.823Z,185
2016-08-27T12:04:21.108Z,185
2016-08-27T12:05:21.083Z,185
2016-08-27T12:06:21.757Z,185
2016-08-27T12:07:21.732Z,185
2016-08-27T12:08:20.317Z,185
2016-08-27T12:09:19.609Z,185
2016-08-27T12:10:21.672Z,185
2016-08-27T12:11:21.643Z,180
2016-08-27T12:12:21.636Z,180
2016-08-27T12:13:21.594Z,180
2016-08-27T12:14:20.874Z,180
2016-08-27T12:15:20.863Z,180
2016-08-27T12:16:21.524Z,180
2016-08-27T12:17:21.507Z,180
2016-08-27T12:18:21.475Z,180
2016-08-27T12:19:20.759Z,180
2016-08-27T12:20:20.734Z,180
2016-08-27T12:21:20.727Z,175
2016-08-27T12:22:19.986Z,175
2016-08-27T12:23:20.674Z,175
2016-08-27T12:24:21.334Z,175
2016-08-27T12:25:21.315Z,175
2016-08-27T12:26:20.607Z,175
2016-08-27T12:27:20.582Z,175
2016-08-27T12:28:21.244Z,175
2016-08-27T12:29:21.219Z,180
2016-08-27T12:30:21.207Z,175
2016-08-27T12:31:20.475Z,175
2016-08-27T12:32:19.765Z,170
2016-08-27T12:33:20.429Z,170
2016-08-27T12:34:19.705Z,170
2016-08-27T12:35:20.387Z,170
2016-08-27T12:36:19.658Z,170
2016-08-27T12:37:20.337Z,170
2016-08-27T12:38:20.311Z,170
2016-08-27T12:39:20.981Z,170
2016-08-27T12:40:20.969Z,170
2016-08-27T12:41:20.240Z,170
2016-08-27T12:42:20.214Z,170
2016-08-27T12:43:19.498Z,170
2016-08-27T12:44:20.170Z,170
2016-08-27T12:45:20.144Z,170
2016-08-27T12:46:20.827Z,165
2016-08-27T12:47:20.111Z,165
2016-08-27T12:48:20.772Z,165
2016-08-27T12:49:20.753Z,165
2016-08-27T12:50:20.031Z,165
2016-08-27T12:51:20.701Z,165
2016-08-27T12:52:20.678Z,165
2016-08-27T12:53:20.655Z,165
2016-08-27T12:54:19.940Z,160
2016-08-27T12:55:19.922Z,160
2016-08-27T12:56:19.891Z,160
2016-08-27T12:57:19.162Z,160
2016-08-27T12:58:19.844Z,160
2016-08-27T12:59:20.512Z,160
2016-08-27T13:00:20.493Z,160
2016-08-27T13:01:18.372Z,160
2016-08-27T13:02:19.754Z,160
2016-08-27T13:03:20.431Z,160
2016-08-27T13:04:19.712Z,160
2016-08-27T13:05:20.369Z,160
2016-08-27T13:06:20.348Z,160
2016-08-27T13:07:18.233Z,160
2016-08-27T13:08:20.307Z,155
2016-08-27T13:09:20.282Z,155
2016-08-27T13:10:19.555Z,155
2016-08-27T13:11:20.231Z,155
2016-08-27T13:12:19.510Z,155
2016-08-27T13:13:20.186Z,155
2016-08-27T13:14:20.165Z,155
2016-08-27T13:15:19.433Z,155
2016-08-27T13:16:19.432Z,155
2016-08-27T13:17:19.391Z,150
2016-08-27T13:18:20.060Z,150
2016-08-27T13:19:20.038Z,150
2016-08-27T13:20:19.322Z,150
2016-08-27T13:21:19.995Z,150
2016-08-27T13:22:19.968Z,150
2016-08-27T13:23:19.940Z,150
2016-08-27T13:24:19.219Z,150
2016-08-27T13:25:19.205Z,150
2016-08-27T13:26:18.485Z,150
2016-08-27T13:27:19.860Z,150
2016-08-27T13:28:19.822Z,150
2016-08-27T13:29:19.107Z,150
2016-08-27T13:30:19.080Z,150
2016-08-27T13:31:19.755Z,145
2016-08-27T13:32:19.741Z,145
2016-08-27T13:33:18.307Z,145
2016-08-27T13:34:19.700Z,145
2016-08-27T13:35:18.264Z,145
2016-08-27T13:36:19.636Z,145
2016-08-27T13:37:18.917Z,145
2016-08-27T13:38:18.886Z,145
2016-08-27T13:39:18.864Z,145
2016-08-27T13:40:19.537Z,145
2016-08-27T13:41:19.537Z,145
2016-08-27T13:42:18.104Z,145
2016-08-27T13:43:18.788Z,140
2016-08-27T13:44:19.454Z,140
2016-08-27T13:45:18.725Z,140
2016-08-27T13:46:18.697Z,140
2016-08-27T13:47:18.679Z,140
2016-08-27T13:48:18.650Z,140
2016-08-27T13:49:19.327Z,140
2016-08-27T13:50:17.908Z,140
2016-08-27T13:51:19.278Z,140
2016-08-27T13:52:19.252Z,140
2016-08-27T13:53:18.541Z,140
2016-08-27T13:54:18.627Z,140
2016-08-27T13:55:19.187Z,145
2016-08-27T13:56:19.154Z,140